createdAt,value
2022-11-03T00:00:14.393Z,75.93
2022-11-03T00:01:14.405Z,76.23
2022-11-03T00:02:14.462Z,76.34
2022-11-03T00:03:14.363Z,76.34
2022-11-03T00:04:14.364Z,76.54
2022-11-03T00:05:14.327Z,76.64
2022-11-03T00:06:14.321Z,76.75
2022-11-03T00:07:14.303Z,76.75
2022-11-03T00:08:14.297Z,76.64
2022-11-03T00:09:14.283Z,76.61
2022-11-03T00:10:14.262Z,76.61
2022-11-03T00:11:14.251Z,76.50
2022-11-03T00:12:14.252Z,76.61
2022-11-03T00:13:14.222Z,76.71
2022-11-03T00:14:14.236Z,76.81
2022-11-03T00:15:14.210Z,76.91
2022-11-03T00:16:14.182Z,77.01
2022-11-03T00:17:14.171Z,77.01
2022-11-03T00:18:14.165Z,76.91
2022-11-03T00:19:14.171Z,77.12
2022-11-03T00:20:14.131Z,77.22
2022-11-03T00:21:14.120Z,77.12
2022-11-03T00:22:14.115Z,77.22
2022-11-03T00:23:14.093Z,77.22
2022-11-03T00:24:14.117Z,77.32
2022-11-03T00:25:14.080Z,77.32
2022-11-03T00:26:14.055Z,77.32
2022-11-03T00:27:14.041Z,77.42
2022-11-03T00:28:14.035Z,77.63
2022-11-03T00:29:14.045Z,77.63
2022-11-03T00:30:14.001Z,77.83
2022-11-03T00:31:14.039Z,77.94
2022-11-03T00:32:13.987Z,78.04
2022-11-03T00:33:13.968Z,77.94
2022-11-03T00:34:13.962Z,78.04
2022-11-03T00:35:13.935Z,78.14
2022-11-03T00:36:13.920Z,78.14
2022-11-03T00:37:13.917Z,78.14
2022-11-03T00:38:13.901Z,78.34
2022-11-03T00:39:13.904Z,78.34
2022-11-03T00:40:13.869Z,78.45
2022-11-03T00:41:13.860Z,78.55
2022-11-03T00:42:13.840Z,78.55
2022-11-03T00:43:13.837Z,78.65
2022-11-03T00:44:13.826Z,78.65
2022-11-03T00:45:13.803Z,78.72
2022-11-03T00:46:13.795Z,78.61
2022-11-03T00:47:13.778Z,78.52
2022-11-03T00:48:13.811Z,78.61
2022-11-03T00:49:13.886Z,78.61
2022-11-03T00:50:13.740Z,78.72
2022-11-03T00:51:13.737Z,78.61
2022-11-03T00:52:13.715Z,78.52
2022-11-03T00:53:13.718Z,78.41
2022-11-03T00:54:13.695Z,78.52
2022-11-03T00:55:13.675Z,78.52
2022-11-03T00:56:13.693Z,78.41
2022-11-03T00:57:13.664Z,78.52
2022-11-03T00:58:13.634Z,78.52
2022-11-03T00:59:13.627Z,78.61
2022-11-03T01:00:13.606Z,78.52
2022-11-03T01:01:13.639Z,78.61
2022-11-03T01:02:13.646Z,78.61
2022-11-03T01:03:13.572Z,78.52
2022-11-03T01:04:13.563Z,78.41
2022-11-03T01:05:13.556Z,78.52
2022-11-03T01:06:13.524Z,78.31
2022-11-03T01:07:13.522Z,78.11
2022-11-03T01:08:13.502Z,78.17
2022-11-03T01:09:13.502Z,78.31
2022-11-03T01:10:13.472Z,78.41
2022-11-03T01:11:13.472Z,78.41
2022-11-03T01:12:13.442Z,78.41
2022-11-03T01:13:13.441Z,78.31
2022-11-03T01:14:13.431Z,78.20
2022-11-03T01:15:13.413Z,78.20
2022-11-03T01:16:13.400Z,78.31
2022-11-03T01:17:13.391Z,78.20
2022-11-03T01:18:13.370Z,78.31
2022-11-03T01:19:13.878Z,78.41
2022-11-03T01:20:13.339Z,78.41
2022-11-03T01:21:13.332Z,78.41
2022-11-03T01:22:13.311Z,78.41
2022-11-03T01:23:13.318Z,78.41
2022-11-03T01:24:13.299Z,78.52
2022-11-03T01:25:13.269Z,78.52
2022-11-03T01:26:13.258Z,78.61
2022-11-03T01:27:13.314Z,78.72
2022-11-03T01:28:13.231Z,78.61
2022-11-03T01:29:13.241Z,78.52
2022-11-03T01:30:13.211Z,78.52
2022-11-03T01:31:13.210Z,78.61
2022-11-03T01:32:13.177Z,78.72
2022-11-03T01:33:13.197Z,78.61
2022-11-03T01:34:13.169Z,78.61
2022-11-03T01:35:13.147Z,78.72
2022-11-03T01:36:13.147Z,78.72
2022-11-03T01:37:13.137Z,78.72
2022-11-03T01:38:13.117Z,78.82
2022-11-03T01:39:13.127Z,78.82
2022-11-03T01:40:13.078Z,78.92
2022-11-03T01:41:13.104Z,78.82
2022-11-03T01:42:13.065Z,78.82
2022-11-03T01:43:13.054Z,78.82
2022-11-03T01:44:13.037Z,78.82
2022-11-03T01:45:13.027Z,78.92
2022-11-03T01:46:13.007Z,78.92
2022-11-03T01:47:13.006Z,79.13
2022-11-03T01:48:12.977Z,79.23
2022-11-03T01:49:12.977Z,79.23
2022-11-03T01:50:12.945Z,79.23
2022-11-03T01:51:12.945Z,79.33
2022-11-03T01:52:12.925Z,79.53
2022-11-03T01:53:12.913Z,79.64
2022-11-03T01:54:12.945Z,79.53
2022-11-03T01:55:12.883Z,79.64
2022-11-03T01:56:12.884Z,79.64
2022-11-03T01:57:12.854Z,79.64
2022-11-03T01:58:12.844Z,79.64
2022-11-03T01:59:12.845Z,79.74
2022-11-03T02:00:12.815Z,79.98
2022-11-03T02:01:12.927Z,80.08
2022-11-03T02:02:12.951Z,80.08
2022-11-03T02:03:12.805Z,80.08
2022-11-03T02:04:12.776Z,80.19
2022-11-03T02:05:12.763Z,80.29
2022-11-03T02:06:12.733Z,80.29
2022-11-03T02:07:12.723Z,80.39
2022-11-03T02:08:12.719Z,80.39
2022-11-03T02:09:12.703Z,80.49
2022-11-03T02:10:12.687Z,80.49
2022-11-03T02:11:12.664Z,80.60
2022-11-03T02:12:12.692Z,80.60
2022-11-03T02:13:12.641Z,80.69
2022-11-03T02:14:12.641Z,80.69
2022-11-03T02:15:12.633Z,80.80
2022-11-03T02:16:12.601Z,80.80
2022-11-03T02:17:12.590Z,80.80
2022-11-03T02:18:12.597Z,80.90
2022-11-03T02:19:12.580Z,81.01
2022-11-03T02:20:12.585Z,81.01
2022-11-03T02:21:12.538Z,81.01
2022-11-03T02:22:12.521Z,81.10
2022-11-03T02:23:12.513Z,81.10
2022-11-03T02:24:12.519Z,81.21
2022-11-03T02:25:12.479Z,81.31
2022-11-03T02:26:12.479Z,81.41
2022-11-03T02:27:12.461Z,81.41
2022-11-03T02:28:12.479Z,81.31
2022-11-03T02:29:12.442Z,81.31
2022-11-03T02:30:12.419Z,81.31
2022-11-03T02:31:12.442Z,81.31
2022-11-03T02:32:12.398Z,81.41
2022-11-03T02:33:12.390Z,81.41
2022-11-03T02:34:12.386Z,81.41
2022-11-03T02:35:12.347Z,81.51
2022-11-03T02:36:12.341Z,81.51
2022-11-03T02:37:12.337Z,81.51
2022-11-03T02:38:12.328Z,81.62
2022-11-03T02:39:12.307Z,81.72
2022-11-03T02:40:12.287Z,81.82
2022-11-03T02:41:12.275Z,81.82
2022-11-03T02:42:12.275Z,81.82
2022-11-03T02:43:12.245Z,81.93
2022-11-03T02:44:12.245Z,82.03
2022-11-03T02:45:16.380Z,82.03
2022-11-03T02:46:13.216Z,81.93
2022-11-03T02:47:12.195Z,81.93
2022-11-03T02:48:12.183Z,82.03
2022-11-03T02:49:12.177Z,82.03
2022-11-03T02:50:12.157Z,82.13
2022-11-03T02:51:12.140Z,82.23
2022-11-03T02:52:12.137Z,82.23
2022-11-03T02:53:12.118Z,82.23
2022-11-03T02:54:12.144Z,82.23
2022-11-03T02:55:12.085Z,82.34
2022-11-03T02:56:12.082Z,82.43
2022-11-03T02:57:12.064Z,82.43
2022-11-03T02:58:12.044Z,82.43
2022-11-03T02:59:12.047Z,82.54
2022-11-03T03:00:12.023Z,82.64
2022-11-03T03:01:12.147Z,82.64
2022-11-03T03:02:12.137Z,82.75
2022-11-03T03:03:11.993Z,82.84
2022-11-03T03:04:11.983Z,82.84
2022-11-03T03:05:11.965Z,82.84
2022-11-03T03:06:11.951Z,82.75
2022-11-03T03:07:11.935Z,82.75
2022-11-03T03:08:11.926Z,82.64
2022-11-03T03:09:11.912Z,82.64
2022-11-03T03:10:11.903Z,82.75
2022-11-03T03:11:11.872Z,82.64
2022-11-03T03:12:11.872Z,82.64
2022-11-03T03:13:11.854Z,82.75
2022-11-03T03:14:11.856Z,82.84
2022-11-03T03:15:11.824Z,82.84
2022-11-03T03:16:11.820Z,82.95
2022-11-03T03:17:11.802Z,82.84
2022-11-03T03:18:11.793Z,82.95
2022-11-03T03:19:11.792Z,82.84
2022-11-03T03:20:11.764Z,82.95
2022-11-03T03:21:11.748Z,83.05
2022-11-03T03:22:11.748Z,83.05
2022-11-03T03:23:11.943Z,83.05
2022-11-03T03:24:11.721Z,82.95
2022-11-03T03:25:11.710Z,82.84
2022-11-03T03:26:11.692Z,82.84
2022-11-03T03:27:11.679Z,82.84
2022-11-03T03:28:11.658Z,82.84
2022-11-03T03:29:11.640Z,82.84
2022-11-03T03:30:11.627Z,82.95
2022-11-03T03:31:11.607Z,83.05
2022-11-03T03:32:11.599Z,83.05
2022-11-03T03:33:11.578Z,83.05
2022-11-03T03:34:31.477Z,83.05
2022-11-03T03:35:12.568Z,82.95
2022-11-03T03:36:11.558Z,82.95
2022-11-03T03:37:11.535Z,82.84
2022-11-03T03:38:11.536Z,82.84
2022-11-03T03:39:11.519Z,82.95
2022-11-03T03:40:11.491Z,82.95
2022-11-03T03:41:11.477Z,83.05
2022-11-03T03:42:11.466Z,83.05
2022-11-03T03:43:11.464Z,82.95
2022-11-03T03:44:11.456Z,83.05
2022-11-03T03:45:11.425Z,83.05
2022-11-03T03:46:11.417Z,83.05
2022-11-03T03:47:11.404Z,82.95
2022-11-03T03:48:11.460Z,83.05
2022-11-03T03:49:11.385Z,83.05
2022-11-03T03:50:11.363Z,83.05
2022-11-03T03:51:11.346Z,83.25
2022-11-03T03:52:11.351Z,83.25
2022-11-03T03:53:11.324Z,83.15
2022-11-03T03:54:11.313Z,83.15
2022-11-03T03:55:11.312Z,83.25
2022-11-03T03:56:11.294Z,83.36
2022-11-03T03:57:11.271Z,83.25
2022-11-03T03:58:11.263Z,83.46
2022-11-03T03:59:11.265Z,83.36
2022-11-03T04:00:11.241Z,83.36
2022-11-03T04:01:11.333Z,83.46
2022-11-03T04:02:11.302Z,83.46
2022-11-03T04:03:11.192Z,83.56
2022-11-03T04:04:11.203Z,83.56
2022-11-03T04:05:11.183Z,83.66
2022-11-03T04:06:11.171Z,83.56
2022-11-03T04:07:11.145Z,83.56
2022-11-03T04:08:11.135Z,83.66
2022-11-03T04:09:11.132Z,83.76
2022-11-03T04:10:11.101Z,83.66
2022-11-03T04:11:11.081Z,83.76
2022-11-03T04:12:11.063Z,83.66
2022-11-03T04:13:11.053Z,83.76
2022-11-03T04:14:11.066Z,83.87
2022-11-03T04:15:11.031Z,83.87
2022-11-03T04:16:11.021Z,83.87
2022-11-03T04:17:10.999Z,83.97
2022-11-03T04:18:11.005Z,83.97
2022-11-03T04:19:11.000Z,84.07
2022-11-03T04:20:10.972Z,84.07
2022-11-03T04:21:10.971Z,84.17
2022-11-03T04:22:10.942Z,84.17
2022-11-03T04:23:10.920Z,84.28
2022-11-03T04:24:10.922Z,84.17
2022-11-03T04:25:10.900Z,84.28
2022-11-03T04:26:10.889Z,84.28
2022-11-03T04:27:10.870Z,84.34
2022-11-03T04:28:10.860Z,84.38
2022-11-03T04:29:10.868Z,84.34
2022-11-03T04:30:10.836Z,84.34
2022-11-03T04:31:10.821Z,84.34
2022-11-03T04:32:10.810Z,84.24
2022-11-03T04:33:10.796Z,84.14
2022-11-03T04:34:10.788Z,84.14
2022-11-03T04:35:10.807Z,84.14
2022-11-03T04:36:10.761Z,84.03
2022-11-03T04:37:10.740Z,83.93
2022-11-03T04:38:10.737Z,83.93
2022-11-03T04:39:10.718Z,83.83
2022-11-03T04:40:10.712Z,83.93
2022-11-03T04:41:10.696Z,83.93
2022-11-03T04:42:10.677Z,84.03
2022-11-03T04:43:10.667Z,84.03
2022-11-03T04:44:10.655Z,84.03
2022-11-03T04:45:10.636Z,84.14
2022-11-03T04:46:10.617Z,84.14
2022-11-03T04:47:10.625Z,84.14
2022-11-03T04:48:10.596Z,84.14
2022-11-03T04:49:10.574Z,84.14
2022-11-03T04:50:10.574Z,84.24
2022-11-03T04:51:10.555Z,84.14
2022-11-03T04:52:10.555Z,84.34
2022-11-03T04:53:10.544Z,84.24
2022-11-03T04:54:10.517Z,84.24
2022-11-03T04:55:10.504Z,84.24
2022-11-03T04:56:10.504Z,84.24
2022-11-03T04:57:10.474Z,84.24
2022-11-03T04:58:10.463Z,84.24
2022-11-03T04:59:10.461Z,84.24
2022-11-03T05:00:10.444Z,84.14
2022-11-03T05:01:10.455Z,84.24
2022-11-03T05:03:10.726Z,84.34
2022-11-03T05:04:10.382Z,84.44
2022-11-03T05:05:10.392Z,84.44
2022-11-03T05:06:10.373Z,84.55
2022-11-03T05:07:10.341Z,84.44
2022-11-03T05:08:10.340Z,84.44
2022-11-03T05:09:10.312Z,84.34
2022-11-03T05:10:10.326Z,84.34
2022-11-03T05:11:10.326Z,84.44
2022-11-03T05:12:10.285Z,84.44
2022-11-03T05:13:10.272Z,84.44
2022-11-03T05:14:10.259Z,84.44
2022-11-03T05:15:10.238Z,84.55
2022-11-03T05:16:10.230Z,84.65
2022-11-03T05:17:10.222Z,84.75
2022-11-03T05:18:10.200Z,84.65
2022-11-03T05:19:10.193Z,84.65
2022-11-03T05:20:10.170Z,84.65
2022-11-03T05:21:10.160Z,84.55
2022-11-03T05:22:10.157Z,84.44
2022-11-03T05:23:10.349Z,84.34
2022-11-03T05:24:10.219Z,84.24
2022-11-03T05:25:10.109Z,84.00
2022-11-03T05:26:10.097Z,83.89
2022-11-03T05:27:10.098Z,83.89
2022-11-03T05:28:10.798Z,83.89
2022-11-03T05:29:10.057Z,83.79
2022-11-03T05:30:10.057Z,83.79
2022-11-03T05:31:10.032Z,83.69
2022-11-03T05:32:10.033Z,83.69
2022-11-03T05:33:10.000Z,83.59
2022-11-03T05:34:09.988Z,83.59
2022-11-03T05:35:09.976Z,83.69
2022-11-03T05:36:09.977Z,83.59
2022-11-03T05:37:09.967Z,83.48
2022-11-03T05:38:09.944Z,83.48
2022-11-03T05:39:09.926Z,83.38
2022-11-03T05:40:09.927Z,83.48
2022-11-03T05:41:09.897Z,83.38
2022-11-03T05:42:09.894Z,83.38
2022-11-03T05:43:12.297Z,83.38
2022-11-03T05:44:09.874Z,83.38
2022-11-03T05:45:09.856Z,83.28
2022-11-03T05:46:09.837Z,83.28
2022-11-03T05:47:09.826Z,83.38
2022-11-03T05:48:09.913Z,83.28
2022-11-03T05:49:09.793Z,83.07
2022-11-03T05:50:09.803Z,83.07
2022-11-03T05:51:09.765Z,82.97
2022-11-03T05:52:09.754Z,82.87
2022-11-03T05:53:09.735Z,82.77
2022-11-03T05:54:09.728Z,82.77
2022-11-03T05:55:09.722Z,82.67
2022-11-03T05:56:09.706Z,82.67
2022-11-03T05:57:09.687Z,82.53
2022-11-03T05:58:09.733Z,82.63
2022-11-03T05:59:09.654Z,82.42
2022-11-03T06:00:09.662Z,82.53
2022-11-03T06:01:09.644Z,82.63
2022-11-03T06:02:09.733Z,82.53
2022-11-03T06:03:09.604Z,82.56
2022-11-03T06:04:09.593Z,82.56
2022-11-03T06:05:09.591Z,82.56
2022-11-03T06:06:09.572Z,82.53
2022-11-03T06:07:09.551Z,82.53
2022-11-03T06:08:09.831Z,82.53
2022-11-03T06:09:09.521Z,82.53
2022-11-03T06:10:09.532Z,82.53
2022-11-03T06:11:09.501Z,82.53
2022-11-03T06:12:09.492Z,82.42
2022-11-03T06:13:09.760Z,82.32
2022-11-03T06:14:09.480Z,82.32
2022-11-03T06:15:09.482Z,82.32
2022-11-03T06:16:09.440Z,82.42
2022-11-03T06:17:09.439Z,82.42
2022-11-03T06:18:09.423Z,82.53
2022-11-03T06:19:09.394Z,82.53
2022-11-03T06:20:09.402Z,82.42
2022-11-03T06:21:09.375Z,82.42
2022-11-03T06:22:09.369Z,82.32
2022-11-03T06:23:09.613Z,82.42
2022-11-03T06:24:09.339Z,82.22
2022-11-03T06:25:09.328Z,82.22
2022-11-03T06:26:09.308Z,82.12
2022-11-03T06:27:09.309Z,82.12
2022-11-03T06:28:09.299Z,81.91
2022-11-03T06:29:09.280Z,81.91
2022-11-03T06:30:09.263Z,81.91
2022-11-03T06:31:09.238Z,81.81
2022-11-03T06:32:09.241Z,81.71
2022-11-03T06:33:09.410Z,81.71
2022-11-03T06:34:09.197Z,81.71
2022-11-03T06:35:09.210Z,81.71
2022-11-03T06:36:09.169Z,81.71
2022-11-03T06:37:12.527Z,81.51
2022-11-03T06:38:09.169Z,81.51
2022-11-03T06:39:09.130Z,81.51
2022-11-03T06:40:09.127Z,81.51
2022-11-03T06:41:09.114Z,81.51
2022-11-03T06:42:09.094Z,81.60
2022-11-03T06:43:09.154Z,81.60
2022-11-03T06:44:09.056Z,81.60
2022-11-03T06:45:09.073Z,81.60
2022-11-03T06:46:09.046Z,81.51
2022-11-03T06:47:09.024Z,81.60
2022-11-03T06:48:09.005Z,81.60
2022-11-03T06:49:08.995Z,81.40
2022-11-03T06:50:08.994Z,81.51
2022-11-03T06:51:08.984Z,81.51
2022-11-03T06:52:08.967Z,81.60
2022-11-03T06:53:09.276Z,81.51
2022-11-03T06:54:08.934Z,81.40
2022-11-03T06:55:12.194Z,81.16
2022-11-03T06:56:09.911Z,81.16
2022-11-03T06:57:08.888Z,81.16
2022-11-03T06:58:08.884Z,81.16
2022-11-03T06:59:08.862Z,81.26
2022-11-03T07:00:28.530Z,81.40
2022-11-03T07:01:09.884Z,81.05
2022-11-03T07:02:08.911Z,81.05
2022-11-03T07:03:09.163Z,81.05
2022-11-03T07:04:08.813Z,81.16
2022-11-03T07:05:08.821Z,81.05
2022-11-03T07:06:08.781Z,80.96
2022-11-03T07:07:08.762Z,81.05
2022-11-03T07:08:08.754Z,80.85
2022-11-03T07:09:08.731Z,80.75
2022-11-03T07:10:08.749Z,80.85
2022-11-03T07:11:08.711Z,80.75
2022-11-03T07:12:08.692Z,80.85
2022-11-03T07:13:09.070Z,80.75
2022-11-03T07:14:08.679Z,80.75
2022-11-03T07:15:08.659Z,80.85
2022-11-03T07:16:08.660Z,80.85
2022-11-03T07:17:08.630Z,80.75
2022-11-03T07:18:08.959Z,80.85
2022-11-03T07:19:08.607Z,80.96
2022-11-03T07:20:08.595Z,81.05
2022-11-03T07:21:08.590Z,80.96
2022-11-03T07:22:08.583Z,80.96
2022-11-03T07:23:08.549Z,80.85
2022-11-03T07:24:08.559Z,80.82
2022-11-03T07:25:08.530Z,80.71
2022-11-03T07:26:08.531Z,80.71
2022-11-03T07:27:08.488Z,80.71
2022-11-03T07:28:08.826Z,80.82
2022-11-03T07:29:08.469Z,80.71
2022-11-03T07:30:08.567Z,80.61
2022-11-03T07:31:12.325Z,80.61
2022-11-03T07:32:09.427Z,80.61
2022-11-03T07:33:08.421Z,80.61
2022-11-03T07:34:08.428Z,80.51
2022-11-03T07:35:08.405Z,80.30
2022-11-03T07:36:15.355Z,80.41
2022-11-03T07:37:09.357Z,80.41
2022-11-03T07:38:08.559Z,80.51
2022-11-03T07:39:08.334Z,80.51
2022-11-03T07:40:08.327Z,80.51
2022-11-03T07:41:08.338Z,80.51
2022-11-03T07:42:08.304Z,80.41
2022-11-03T07:43:08.296Z,80.41
2022-11-03T07:44:08.265Z,80.41
2022-11-03T07:45:08.256Z,80.41
2022-11-03T07:46:08.254Z,80.30
2022-11-03T07:47:08.244Z,80.30
2022-11-03T07:48:08.605Z,80.00
2022-11-03T07:49:08.218Z,80.00
2022-11-03T07:50:08.202Z,79.80
2022-11-03T07:51:08.192Z,79.69
2022-11-03T07:52:08.173Z,79.66
2022-11-03T07:53:08.153Z,79.75
2022-11-03T07:54:08.143Z,79.75
2022-11-03T07:55:08.123Z,79.86
2022-11-03T07:56:08.194Z,79.66
2022-11-03T07:57:08.095Z,79.66
2022-11-03T07:58:08.370Z,79.55
2022-11-03T07:59:08.085Z,79.55
2022-11-03T08:00:10.312Z,79.55
2022-11-03T08:01:08.064Z,79.55
2022-11-03T08:02:08.143Z,79.14
2022-11-03T08:03:08.247Z,79.14
2022-11-03T08:04:08.022Z,78.60
2022-11-03T08:05:08.054Z,78.60
2022-11-03T08:06:10.008Z,78.60
2022-11-03T08:07:07.972Z,78.50
2022-11-03T08:08:08.327Z,78.50
2022-11-03T08:09:07.940Z,77.89
2022-11-03T08:10:07.924Z,77.44
2022-11-03T08:11:08.011Z,77.24
2022-11-03T08:12:07.904Z,77.55
2022-11-03T08:13:08.199Z,77.03
2022-11-03T08:14:07.879Z,77.24
2022-11-03T08:15:07.862Z,76.83
2022-11-03T08:16:07.867Z,76.73
2022-11-03T08:17:07.840Z,76.69
2022-11-03T08:18:07.841Z,76.79
2022-11-03T08:19:07.808Z,76.39
2022-11-03T08:20:07.802Z,76.28
2022-11-03T08:21:07.800Z,76.39
2022-11-03T08:22:07.780Z,76.28
2022-11-03T08:24:08.745Z,75.98
2022-11-03T08:25:07.739Z,75.98
2022-11-03T08:26:07.750Z,75.98
2022-11-03T08:27:07.705Z,76.18
2022-11-03T08:28:07.695Z,75.98
2022-11-03T08:29:07.667Z,75.43
2022-11-03T08:30:07.659Z,75.64
2022-11-03T08:31:12.282Z,75.74
2022-11-03T08:32:08.646Z,75.74
2022-11-03T08:33:07.989Z,75.84
2022-11-03T08:34:07.615Z,75.54
2022-11-03T08:35:07.597Z,75.54
2022-11-03T08:36:07.606Z,75.33
2022-11-03T08:37:07.565Z,75.23
2022-11-03T08:38:07.944Z,74.93
2022-11-03T08:39:07.541Z,75.02
2022-11-03T08:40:07.531Z,74.93
2022-11-03T08:41:07.543Z,74.93
2022-11-03T08:42:07.505Z,74.93
2022-11-03T08:43:07.497Z,75.13
2022-11-03T08:44:07.485Z,75.02
2022-11-03T08:45:07.470Z,74.72
2022-11-03T08:46:15.922Z,74.93
2022-11-03T08:47:08.436Z,75.02
2022-11-03T08:48:07.754Z,74.62
2022-11-03T08:49:07.421Z,74.62
2022-11-03T08:50:07.419Z,74.82
2022-11-03T08:51:07.413Z,74.62
2022-11-03T08:52:07.390Z,74.72
2022-11-03T08:53:07.369Z,74.52
2022-11-03T08:54:07.373Z,74.18
2022-11-03T08:55:07.338Z,74.18
2022-11-03T08:56:10.472Z,74.28
2022-11-03T08:57:08.305Z,74.18
2022-11-03T08:58:07.509Z,73.87
2022-11-03T08:59:07.280Z,73.87
2022-11-03T09:00:07.282Z,73.97
2022-11-03T09:01:07.271Z,73.77
2022-11-03T09:02:07.282Z,73.06
2022-11-03T09:03:07.283Z,73.33
2022-11-03T09:04:07.293Z,73.23
2022-11-03T09:05:07.203Z,73.33
2022-11-03T09:06:07.203Z,73.13
2022-11-03T09:07:07.184Z,73.33
2022-11-03T09:10:26.611Z,72.58
2022-11-03T09:11:08.141Z,71.77
2022-11-03T09:12:07.121Z,71.57
2022-11-03T09:13:07.350Z,71.77
2022-11-03T09:14:07.082Z,71.57
2022-11-03T09:15:07.073Z,71.57
2022-11-03T09:16:07.069Z,71.57
2022-11-03T09:17:07.043Z,71.23
2022-11-03T09:18:07.395Z,71.12
2022-11-03T09:19:07.020Z,71.43
2022-11-03T09:20:07.017Z,71.23
2022-11-03T09:21:06.998Z,71.03
2022-11-03T09:22:06.989Z,71.12
2022-11-03T09:23:06.970Z,70.82
2022-11-03T09:24:07.078Z,71.09
2022-11-03T09:25:06.940Z,70.79
2022-11-03T09:26:06.943Z,70.89
2022-11-03T09:27:06.926Z,70.59
2022-11-03T09:28:07.373Z,70.38
2022-11-03T09:29:06.895Z,70.08
2022-11-03T09:30:13.194Z,70.28
2022-11-03T09:31:07.980Z,69.78
2022-11-03T09:32:06.848Z,70.08
2022-11-03T09:33:06.843Z,70.08
2022-11-03T09:34:06.830Z,70.18
2022-11-03T09:35:06.809Z,69.87
2022-11-03T09:36:06.816Z,69.64
2022-11-03T09:37:06.786Z,69.74
2022-11-03T09:38:07.044Z,69.23
2022-11-03T09:39:06.777Z,69.03
2022-11-03T09:40:06.748Z,69.03
2022-11-03T09:41:13.974Z,68.52
2022-11-03T09:42:07.725Z,68.22
2022-11-03T09:43:06.955Z,68.12
2022-11-03T09:44:06.705Z,67.78
2022-11-03T09:45:06.687Z,67.58
2022-11-03T09:46:06.686Z,67.58
2022-11-03T09:47:06.656Z,67.98
2022-11-03T09:48:06.908Z,67.78
2022-11-03T09:49:06.637Z,67.58
2022-11-03T09:50:06.616Z,67.68
2022-11-03T09:51:06.632Z,67.58
2022-11-03T09:52:06.594Z,67.17
2022-11-03T09:53:06.935Z,67.68
2022-11-03T09:54:06.563Z,66.97
2022-11-03T09:55:06.553Z,66.97
2022-11-03T09:56:06.553Z,66.77
2022-11-03T09:57:06.533Z,66.86
2022-11-03T09:58:06.800Z,66.77
2022-11-03T09:59:06.512Z,66.36
2022-11-03T10:00:06.492Z,66.36
2022-11-03T10:01:06.531Z,66.63
2022-11-03T10:02:06.596Z,65.72
2022-11-03T10:03:06.681Z,65.92
2022-11-03T10:04:06.443Z,65.72
2022-11-03T10:05:11.001Z,65.42
2022-11-03T10:06:10.958Z,65.72
2022-11-03T10:07:07.402Z,65.31
2022-11-03T10:08:06.412Z,65.01
2022-11-03T10:09:06.382Z,64.81
2022-11-03T10:10:06.361Z,64.81
2022-11-03T10:11:06.362Z,65.11
2022-11-03T10:12:06.346Z,65.21
2022-11-03T10:13:06.641Z,65.31
2022-11-03T10:14:06.310Z,65.42
2022-11-03T10:15:06.300Z,65.52
2022-11-03T10:16:06.306Z,65.31
2022-11-03T10:17:06.273Z,65.52
2022-11-03T10:18:06.251Z,65.31
2022-11-03T10:19:06.252Z,64.81
2022-11-03T10:20:06.233Z,64.61
2022-11-03T10:21:06.240Z,64.61
2022-11-03T10:22:06.204Z,64.40
2022-11-03T10:23:06.468Z,65.01
2022-11-03T10:24:06.178Z,64.70
2022-11-03T10:25:06.162Z,64.70
2022-11-03T10:26:06.161Z,65.01
2022-11-03T10:27:06.140Z,65.01
2022-11-03T10:28:09.228Z,65.01
2022-11-03T10:29:07.162Z,65.01
2022-11-03T10:30:06.102Z,65.11
2022-11-03T10:31:13.698Z,65.01
2022-11-03T10:32:07.073Z,65.01
2022-11-03T10:33:06.251Z,64.81
2022-11-03T10:34:06.040Z,64.61
2022-11-03T10:35:06.038Z,64.20
2022-11-03T10:36:06.007Z,64.61
2022-11-03T10:37:06.018Z,64.61
2022-11-03T10:38:05.979Z,64.61
2022-11-03T10:39:05.970Z,64.70
2022-11-03T10:40:07.068Z,64.70
2022-11-03T10:41:05.946Z,65.01
2022-11-03T10:42:05.947Z,65.01
2022-11-03T10:43:06.703Z,64.70
2022-11-03T10:44:06.013Z,65.21
2022-11-03T10:45:05.896Z,64.61
2022-11-03T10:46:08.103Z,64.81
2022-11-03T10:47:05.866Z,65.01
2022-11-03T10:48:05.858Z,65.31
2022-11-03T10:50:05.834Z,65.31
2022-11-03T10:51:05.831Z,65.31
2022-11-03T10:52:05.815Z,65.11
2022-11-03T10:53:06.063Z,65.11
2022-11-03T10:54:05.780Z,64.81
2022-11-03T10:55:05.777Z,64.81
2022-11-03T10:56:05.745Z,64.30
2022-11-03T10:57:05.725Z,64.50
2022-11-03T10:58:06.012Z,64.37
2022-11-03T10:59:05.716Z,64.17
2022-11-03T11:00:05.696Z,64.27
2022-11-03T11:01:05.743Z,63.96
2022-11-03T11:02:05.814Z,64.47
2022-11-03T11:03:06.091Z,63.86
2022-11-03T11:04:05.699Z,64.67
2022-11-03T11:05:05.615Z,64.17
2022-11-03T11:06:05.644Z,64.07
2022-11-03T11:07:05.693Z,63.56
2022-11-03T11:08:05.757Z,63.46
2022-11-03T11:09:05.655Z,64.07
2022-11-03T11:10:05.652Z,63.96
2022-11-03T11:11:05.638Z,64.27
2022-11-03T11:12:05.548Z,64.58
2022-11-03T11:13:05.842Z,64.37
2022-11-03T11:14:05.494Z,64.58
2022-11-03T11:15:05.485Z,64.07
2022-11-03T11:16:05.474Z,64.07
2022-11-03T11:17:05.463Z,64.07
2022-11-03T11:18:05.463Z,64.17
2022-11-03T11:19:05.433Z,64.47
2022-11-03T11:20:05.420Z,64.07
2022-11-03T11:21:05.406Z,64.27
2022-11-03T11:22:05.423Z,63.96
2022-11-03T11:23:05.611Z,63.66
2022-11-03T11:24:05.392Z,63.93
2022-11-03T11:25:05.351Z,63.63
2022-11-03T11:26:05.346Z,63.63
2022-11-03T11:27:05.320Z,63.43
2022-11-03T11:28:05.310Z,62.59
2022-11-03T11:29:05.291Z,62.59
2022-11-03T11:30:05.311Z,61.68
2022-11-03T11:31:05.271Z,61.85
2022-11-03T11:32:05.258Z,61.24
2022-11-03T11:33:05.520Z,61.01
2022-11-03T11:34:05.230Z,61.52
2022-11-03T11:35:05.211Z,61.19
2022-11-03T11:36:05.226Z,60.45
2022-11-03T11:37:05.189Z,59.94
2022-11-03T11:38:05.170Z,59.94
2022-11-03T11:39:05.162Z,59.64
2022-11-03T11:40:05.152Z,59.84
2022-11-03T11:41:05.187Z,59.74
2022-11-03T11:42:05.152Z,59.84
2022-11-03T11:43:05.484Z,60.05
2022-11-03T11:44:05.099Z,59.23
2022-11-03T11:45:05.090Z,59.44
2022-11-03T11:46:05.069Z,59.94
2022-11-03T11:47:05.062Z,59.54
2022-11-03T11:48:05.041Z,60.05
2022-11-03T11:49:05.019Z,60.35
2022-11-03T11:50:05.009Z,59.94
2022-11-03T11:51:04.996Z,60.05
2022-11-03T11:52:04.979Z,60.25
2022-11-03T11:53:05.387Z,59.74
2022-11-03T11:54:17.598Z,59.56
2022-11-03T11:55:05.957Z,60.27
2022-11-03T11:56:04.937Z,60.78
2022-11-03T11:57:04.907Z,60.50
2022-11-03T11:58:04.907Z,60.50
2022-11-03T11:59:04.897Z,61.21
2022-11-03T12:00:04.867Z,60.61
2022-11-03T12:01:04.882Z,60.81
2022-11-03T12:02:04.846Z,60.71
2022-11-03T12:03:05.257Z,61.11
2022-11-03T12:04:04.932Z,61.11
2022-11-03T12:05:04.820Z,61.21
2022-11-03T12:06:04.808Z,61.21
2022-11-03T12:07:04.776Z,61.11
2022-11-03T12:08:04.899Z,60.81
2022-11-03T12:09:04.766Z,61.01
2022-11-03T12:10:04.745Z,61.11
2022-11-03T12:11:04.810Z,61.04
2022-11-03T12:12:08.649Z,61.14
2022-11-03T12:13:04.696Z,60.94
2022-11-03T12:14:04.686Z,61.44
2022-11-03T12:15:04.668Z,62.15
2022-11-03T12:16:04.684Z,62.56
2022-11-03T12:17:04.639Z,62.15
2022-11-03T12:18:04.827Z,61.55
2022-11-03T12:19:04.754Z,61.75
2022-11-03T12:20:04.597Z,61.65
2022-11-03T12:21:04.595Z,62.15
2022-11-03T12:22:04.605Z,62.35
2022-11-03T12:23:04.559Z,62.38
2022-11-03T12:24:04.544Z,62.49
2022-11-03T12:25:04.535Z,62.69
2022-11-03T12:26:04.521Z,62.89
2022-11-03T12:27:04.522Z,62.69
2022-11-03T12:28:04.888Z,62.29
2022-11-03T12:29:04.482Z,62.69
2022-11-03T12:30:04.535Z,62.69
2022-11-03T12:31:04.505Z,62.99
2022-11-03T12:32:04.444Z,62.69
2022-11-03T12:33:04.552Z,62.38
2022-11-03T12:34:04.432Z,62.89
2022-11-03T12:35:04.412Z,63.60
2022-11-03T12:36:04.391Z,63.50
2022-11-03T12:37:04.373Z,63.60
2022-11-03T12:38:04.363Z,63.40
2022-11-03T12:39:04.344Z,63.20
2022-11-03T12:40:04.362Z,63.50
2022-11-03T12:41:04.326Z,63.50
2022-11-03T12:42:04.302Z,63.70
2022-11-03T12:43:04.650Z,63.50
2022-11-03T12:44:04.329Z,63.60
2022-11-03T12:45:04.274Z,63.30
2022-11-03T12:46:04.262Z,63.60
2022-11-03T12:47:04.246Z,63.90
2022-11-03T12:48:04.228Z,63.20
2022-11-03T12:49:04.218Z,62.99
2022-11-03T12:50:04.192Z,63.40
2022-11-03T12:51:04.211Z,63.40
2022-11-03T12:52:07.888Z,63.60
2022-11-03T12:53:04.371Z,63.57
2022-11-03T12:54:04.160Z,62.96
2022-11-03T12:55:04.130Z,63.07
2022-11-03T12:56:04.116Z,63.27
2022-11-03T12:57:04.132Z,62.86